Saturday, December 15, 2018, 1:41 PM EST
Back to Local

KEWN, New Bern, Craven County Regional Airport

Location: New Bern, NC, United States Lat: 35.068
Local Time: 1:41 PM EST (18:41 GMT) Lon: -77.047
Time Zone: US/Eastern Elev: 16 ft

Show me the last for .
Show Decoded

2018-12-15 12:54 METAR KEWN 151754Z 00000KT 3SM RA BR BKN006 OVC043 18/18 A2990 RMK AO2 SLP126
                 P0006 60025 T01830183 10189 20183 58030 =
2018-12-15 12:45 METAR KEWN 151745Z 00000KT 3SM RA BR OVC006 18/18 A2991 RMK AO2 P0005 T01830183
                 =
2018-12-15 12:36 METAR KEWN 151736Z 00000KT 1 3/4SM RA BR OVC007 18/18 A2992 RMK AO2 P0003
                 T01830183 =
2018-12-15 12:06 METAR KEWN 151706Z 27003KT 3SM -RA BR BKN006 OVC013 19/18 A2994 RMK AO2 CIG
                 004V009 P0001 T01890183 =
2018-12-15 11:54 METAR KEWN 151654Z 00000KT 4SM -RA BR SCT006 BKN010 OVC040 19/19 A2994 RMK AO2
                 RAB17 SLP137 P0005 T01890189 =
2018-12-15 11:52 METAR KEWN 151652Z 00000KT 4SM -RA BR SCT006 BKN010 OVC040 19/18 A2994 RMK AO2
                 RAB17 P0005 =
2018-12-15 11:49 METAR KEWN 151649Z 00000KT 2 1/2SM -RA BR BKN006 BKN014 OVC037 18/18 A2994 RMK
                 AO2 RAB17 P0005 =
2018-12-15 11:46 METAR KEWN 151646Z 00000KT 1 3/4SM RA BR SCT006 BKN010 OVC037 18/18 A2994 RMK
                 AO2 RAB17 P0005 T01830183 =
2018-12-15 11:29 METAR KEWN 151629Z 00000KT 1 3/4SM -RA BR BKN006 BKN012 OVC037 19/18 A2995 RMK
                 AO2 RAB17 P0002 T01890183 =
2018-12-15 11:12 METAR KEWN 151612Z 26003KT 10SM BKN007 OVC014 19/18 A2996 RMK AO2 CIG 003V010
                 T01890183 =
2018-12-15 10:54 METAR KEWN 151554Z 26003KT 6SM BR FEW005 BKN018 OVC026 19/19 A2996 RMK AO2 RAE52
                 SLP146 P0004 T01890189 =
2018-12-15 10:40 METAR KEWN 151540Z 00000KT 3SM -RA BR FEW005 BKN020 OVC026 19/19 A2997 RMK AO2
                 P0004 T01890189 =
2018-12-15 10:28 METAR KEWN 151528Z 00000KT 1 3/4SM RA BR FEW005 BKN022 OVC029 18/18 A2997 RMK
                 AO2 P0004 T01830183 =
2018-12-15 10:18 METAR KEWN 151518Z 23003KT 7SM -RA FEW005 BKN022 OVC029 18/18 A2998 RMK AO2
                 P0003 T01830183 =
2018-12-15 10:11 METAR KEWN 151511Z 26004KT 3SM -RA BR FEW004 BKN013 OVC028 19/19 A2999 RMK AO2
                 P0003 T01890189 =
2018-12-15 10:08 METAR KEWN 151508Z 00000KT 1 3/4SM -RA BR SCT004 BKN013 OVC028 18/18 A2999 RMK
                 AO2 P0003 T01830183 =
2018-12-15 10:01 METAR KEWN 151501Z 27004KT 1 1/4SM RA BR SCT004 BKN008 OVC021 18/18 A2999 RMK
                 AO2 P0002 T01830183 =
2018-12-15 09:54 METAR KEWN 151454Z 00000KT 2 1/2SM -RA BR BKN004 BKN011 OVC021 18/18 A2999 RMK
                 AO2 SLP156 P0006 60010 T01830183 53007 =
2018-12-15 09:43 METAR KEWN 151443Z 26006KT 3/4SM +RA BR OVC004 18/18 A3000 RMK AO2 P0006
                 T01830183 =
2018-12-15 09:02 METAR KEWN 151402Z 18005KT 6SM -RA BR OVC004 19/18 A2999 RMK AO2 P0000 T01890183
                 =
2018-12-15 08:54 METAR KEWN 151354Z 17006KT 9SM -RA OVC005 18/18 A2998 RMK AO2 RAE23B32 SLP152
                 P0001 T01830183 =
2018-12-15 08:37 METAR KEWN 151337Z 18006KT 9SM -RA BKN005 BKN010 BKN055 18/18 A2998 RMK AO2
                 RAE23B32 P0001 T01830183 =
2018-12-15 08:31 METAR KEWN 151331Z 17007KT 10SM SCT007 BKN055 BKN110 18/18 A2998 RMK AO2 RAE23
                 P0001 T01830183 =
2018-12-15 07:54 METAR KEWN 151254Z 17005KT 8SM -RA BKN055 BKN110 18/18 A2997 RMK AO2 RAE03B11
                 SLP149 P0003 T01830183 =
2018-12-15 07:07 METAR KEWN 151207Z 16007KT 10SM SCT004 BKN043 OVC100 18/18 A2997 RMK AO2 RAE03
                 P0000 T01830183 =
2018-12-15 06:54 METAR KEWN 151154Z 17008KT 4SM -RA BR BKN004 BKN041 OVC049 18/18 A2997 RMK AO2
                 SLP149 P0003 60017 70086 T01830183 10189 20183 53007 =
2018-12-15 06:16 METAR KEWN 151116Z 15005KT 7SM -RA BKN004 OVC110 18/18 A2995 RMK AO2 P0001
                 T01830183 =
2018-12-15 05:54 METAR KEWN 151054Z 17007KT 7SM -RA OVC005 19/19 A2996 RMK AO2 RAB05 SLP144 P0001
                 T01890189 =
2018-12-15 05:25 METAR KEWN 151025Z AUTO 18006KT 8SM -RA BKN005 BKN050 OVC110 19/19 A2996 RMK AO2
                 RAB05 P0000 T01890189 =
2018-12-15 05:16 METAR KEWN 151016Z AUTO 18006KT 10SM -RA SCT005 BKN090 BKN110 19/19 A2996 RMK
                 AO2 RAB05 P0000 T01890189 =
2018-12-15 05:04 METAR KEWN 151004Z AUTO 19005KT 10SM BKN005 BKN120 19/19 A2996 RMK AO2 T01890189
                 =
2018-12-15 04:54 METAR KEWN 150954Z AUTO 19004KT 10SM SCT006 BKN120 19/19 A2995 RMK AO2 RAE07
                 SLP142 P0000 T01890189 =
2018-12-15 04:37 METAR KEWN 150937Z AUTO 20006KT 10SM SCT007 BKN110 18/18 A2996 RMK AO2 RAE07
                 P0000 T01830183 =
2018-12-15 03:54 METAR KEWN 150854Z AUTO 19004KT 10SM -RA BKN110 19/19 A2995 RMK AO2 SLP142 P0006
                 60013 T01890189 58014 =
2018-12-15 03:01 METAR KEWN 150801Z AUTO 19007KT 4SM RA BR FEW008 BKN090 OVC110 19/19 A2999 RMK
                 AO2 P0002 T01890189 =
2018-12-15 02:54 METAR KEWN 150754Z AUTO 19006KT 4SM RA BR FEW060 SCT090 OVC110 19/19 A2999 RMK
                 AO2 SLP156 P0004 T01890189 =
2018-12-15 01:54 METAR KEWN 150654Z AUTO 18008KT 4SM -RA BR FEW007 BKN060 OVC110 18/18 A2999 RMK
                 AO2 SLP154 P0003 T01830183 =
2018-12-15 01:29 METAR KEWN 150629Z AUTO 18005KT 5SM -RA BR SCT006 BKN110 18/18 A2998 RMK AO2
                 P0001 T01830183 =
2018-12-15 00:54 METAR KEWN 150554Z AUTO 18006KT 6SM -RA BR OVC007 19/18 A2999 RMK AO2 CIG
                 005V009 SLP156 P0003 60060 T01890183 10189 20161 55018 =
2018-12-15 00:30 METAR KEWN 150530Z AUTO 18005KT 4SM -RA BR BKN009 OVC013 19/18 A2999 RMK AO2
                 P0002 T01890183 =
2018-12-15 00:19 METAR KEWN 150519Z AUTO 17005KT 5SM -RA BR FEW009 BKN013 OVC070 19/18 A3000 RMK
                 AO2 P0001 T01890183 =
2018-12-14 23:54 METAR KEWN 150454Z AUTO 16007KT 5SM -RA BR FEW010 BKN060 OVC075 19/18 A2999 RMK
                 AO2 SLP156 P0005 T01890183 401890039 =
2018-12-14 23:16 METAR KEWN 150416Z AUTO 16005KT 3SM RA BR FEW007 BKN060 OVC075 19/18 A3001 RMK
                 AO2 P0003 T01890183 =
2018-12-14 23:07 METAR KEWN 150407Z AUTO 16007KT 5SM -RA BR SCT010 BKN060 OVC075 18/18 A3001 RMK
                 AO2 P0001 T01830183 =
2018-12-14 22:54 METAR KEWN 150354Z AUTO 15005KT 5SM -RA BR BKN010 BKN046 OVC085 18/18 A3002 RMK
                 AO2 SLP165 P0008 T01830178 =
2018-12-14 22:45 METAR KEWN 150345Z AUTO 15005KT 6SM -RA BR BKN010 BKN027 OVC047 18/18 A3002 RMK
                 AO2 P0008 T01780178 =
2018-12-14 22:23 METAR KEWN 150323Z AUTO 12008KT 6SM -RA BR SCT006 BKN027 OVC045 18/17 A3003 RMK
                 AO2 P0005 T01780172 =
2018-12-14 22:11 METAR KEWN 150311Z AUTO 13009G15KT 4SM -RA BR BKN006 OVC014 18/17 A3004 RMK AO2
                 CIG 003V009 P0004 T01780172 =
2018-12-14 22:02 METAR KEWN 150302Z AUTO 14006KT 2 1/2SM +RA BR BKN004 OVC008 18/18 A3005 RMK AO2
                 P0003 T01780178 =
2018-12-14 21:54 METAR KEWN 150254Z AUTO 14007KT 1 3/4SM RA BR BKN004 OVC010 18/18 A3005 RMK AO2
                 SLP174 P0023 60044 T01780178 58027 =
2018-12-14 21:46 METAR KEWN 150246Z AUTO 14006KT 1 1/2SM +RA BR BKN004 OVC010 18/17 A3005 RMK AO2
                 P0020 T01780172 =
2018-12-14 21:31 METAR KEWN 150231Z 09006KT 2 1/2SM RA BR BKN005 BKN021 OVC065 17/17 A3005 RMK
                 AO2 P0011 T01720172 =
2018-12-14 21:29 METAR KEWN 150229Z 10007KT 3SM RA BR SCT005 BKN017 OVC065 17/17 A3005 RMK AO2
                 P0011 T01720172 =
2018-12-14 21:21 METAR KEWN 150221Z 10008KT 4SM -RA BR SCT004 BKN039 OVC055 17/17 A3006 RMK AO2
                 P0009 T01720172 =
2018-12-14 21:05 METAR KEWN 150205Z 09005KT 2SM +RA BR FEW008 BKN040 OVC060 17/17 A3007 RMK AO2
                 P0006 T01720167 =
2018-12-14 20:54 METAR KEWN 150154Z 09008KT 1 3/4SM +RA BR FEW012 BKN040 OVC055 17/17 A3008 RMK
                 AO2 SLP185 P0018 T01670167 =
2018-12-14 20:46 METAR KEWN 150146Z 13004KT 2SM +RA BR FEW012 SCT037 OVC047 17/17 A3010 RMK AO2
                 P0011 T01670167 =
2018-12-14 20:24 METAR KEWN 150124Z 13004KT 4SM RA BR FEW004 SCT014 OVC039 17/17 A3011 RMK AO2
                 P0003 T01670167 =
2018-12-14 20:08 METAR KEWN 150108Z 13007KT 4SM -RA BR SCT006 BKN016 OVC042 17/17 A3011 RMK AO2
                 P0001 T01720167 =
2018-12-14 19:54 METAR KEWN 150054Z 12006KT 4SM -RA BR BKN007 BKN022 OVC042 17/17 A3012 RMK AO2
                 SLP198 P0003 T01720167 =
2018-12-14 19:40 METAR KEWN 150040Z 12004KT 4SM RA BR BKN007 BKN032 OVC100 17/17 A3012 RMK AO2
                 CIG 005V020 P0002 T01670167 =
2018-12-14 18:54 METAR KEWN 142354Z 10005KT 4SM -RA BR FEW055 SCT070 OVC095 16/16 A3013 RMK AO2
                 SLP201 P0006 60009 T01610161 10183 20139 58009 =
2018-12-14 17:54 METAR KEWN 142254Z 13006KT 6SM -RA BR FEW023 BKN043 OVC075 17/16 A3015 RMK AO2
                 RAE01B25 SLP210 P0003 T01670161 =
2018-12-14 17:45 METAR KEWN 142245Z 12006KT 5SM -RA BR BKN023 BKN040 OVC055 17/16 A3016 RMK AO2
                 RAE01B25 P0003 T01670161 =
2018-12-14 17:30 METAR KEWN 142230Z 14010KT 2 1/2SM +RA BR BKN025 BKN044 OVC110 17/15 A3016 RMK
                 AO2 RAE01B25 P0003 T01720150 =
2018-12-14 16:54 METAR KEWN 142154Z 12008KT 8SM -RA FEW085 BKN110 18/14 A3015 RMK AO2 RAB47
                 SLP210 P0000 T01780144 =
2018-12-14 15:54 METAR KEWN 142054Z 11006KT 10SM SCT075 BKN110 17/14 A3017 RMK AO2
                 RAB1959E09B30E41 SLP215 P0000 60000 T01720139 56018 =
2018-12-14 14:54 METAR KEWN 141954Z 08004KT 10SM FEW030 BKN075 OVC100 16/13 A3018 RMK AO2
                 RAE03B28E50 SLP219 P0000 T01560133 =
2018-12-14 13:54 METAR KEWN 141854Z 10003KT 5SM -RA SCT032 SCT049 OVC065 15/12 A3019 RMK AO2
                 RAB49 SLP222 P0000 T01500122 =

Support USWX by starting your Amazon purchase here.